sensor_id;sensor_type;location;lat;lon;timestamp;pressure;altitude;pressure_sealevel;temperature;humidity
50380;BME280;37474;59.468;18.040;2023-04-19T00:00:06;103622.91;;;1.27;99.19
50380;BME280;37474;59.468;18.040;2023-04-19T00:02:39;103620.50;;;1.32;96.87
50380;BME280;37474;59.468;18.040;2023-04-19T00:05:09;103613.13;;;1.40;96.81
50380;BME280;37474;59.468;18.040;2023-04-19T00:07:39;103615.31;;;1.29;97.41
50380;BME280;37474;59.468;18.040;2023-04-19T00:10:08;103613.34;;;1.22;97.69
50380;BME280;37474;59.468;18.040;2023-04-19T00:12:36;103611.53;;;1.18;98.55
50380;BME280;37474;59.468;18.040;2023-04-19T00:15:06;103610.16;;;1.02;99.37
50380;BME280;37474;59.468;18.040;2023-04-19T00:17:35;103615.72;;;1.16;100.00
50380;BME280;37474;59.468;18.040;2023-04-19T00:20:04;103615.78;;;1.17;100.00
50380;BME280;37474;59.468;18.040;2023-04-19T00:22:32;103601.13;;;1.12;100.00
50380;BME280;37474;59.468;18.040;2023-04-19T00:25:04;103612.53;;;0.97;99.93
50380;BME280;37474;59.468;18.040;2023-04-19T00:27:32;103612.84;;;1.07;100.00
50380;BME280;37474;59.468;18.040;2023-04-19T00:30:00;103610.03;;;0.99;100.00
50380;BME280;37474;59.468;18.040;2023-04-19T00:32:30;103608.28;;;0.98;100.00
50380;BME280;37474;59.468;18.040;2023-04-19T00:35:01;103604.25;;;1.04;100.00
50380;BME280;37474;59.468;18.040;2023-04-19T00:37:29;103615.13;;;0.99;100.00
50380;BME280;37474;59.468;18.040;2023-04-19T00:39:57;103615.16;;;0.75;100.00
50380;BME280;37474;59.468;18.040;2023-04-19T00:42:25;103613.63;;;0.80;100.00
50380;BME280;37474;59.468;18.040;2023-04-19T00:44:53;103610.19;;;0.78;100.00
50380;BME280;37474;59.468;18.040;2023-04-19T00:47:22;103612.88;;;0.83;100.00
50380;BME280;37474;59.468;18.040;2023-04-19T00:49:51;103615.16;;;0.75;100.00
50380;BME280;37474;59.468;18.040;2023-04-19T00:52:20;103611.25;;;0.85;100.00
50380;BME280;37474;59.468;18.040;2023-04-19T00:54:48;103605.97;;;0.80;100.00
50380;BME280;37474;59.468;18.040;2023-04-19T00:57:17;103610.38;;;0.60;100.00
50380;BME280;37474;59.468;18.040;2023-04-19T00:59:45;103616.72;;;0.71;100.00
50380;BME280;37474;59.468;18.040;2023-04-19T01:02:14;103619.88;;;0.64;100.00
50380;BME280;37474;59.468;18.040;2023-04-19T01:04:42;103605.28;;;0.38;100.00
50380;BME280;37474;59.468;18.040;2023-04-19T01:07:12;103613.50;;;0.77;100.00
50380;BME280;37474;59.468;18.040;2023-04-19T01:09:41;103611.22;;;0.61;100.00
50380;BME280;37474;59.468;18.040;2023-04-19T01:12:10;103608.84;;;0.65;100.00
50380;BME280;37474;59.468;18.040;2023-04-19T01:14:38;103605.19;;;0.35;100.00
50380;BME280;37474;59.468;18.040;2023-04-19T01:17:07;103615.50;;;0.38;100.00
50380;BME280;37474;59.468;18.040;2023-04-19T01:19:35;103569.78;;;0.20;100.00
50380;BME280;37474;59.468;18.040;2023-04-19T01:22:04;103607.75;;;0.35;100.00
50380;BME280;37474;59.468;18.040;2023-04-19T01:24:34;103557.16;;;-0.22;100.00
50380;BME280;37474;59.468;18.040;2023-04-19T01:27:01;103615.75;;;0.21;100.00
50380;BME280;37474;59.468;18.040;2023-04-19T01:29:30;103607.38;;;0.48;100.00
50380;BME280;37474;59.468;18.040;2023-04-19T01:31:57;103571.09;;;0.10;100.00
50380;BME280;37474;59.468;18.040;2023-04-19T01:34:26;103609.31;;;0.31;100.00
50380;BME280;37474;59.468;18.040;2023-04-19T01:36:54;103602.75;;;0.15;100.00
50380;BME280;37474;59.468;18.040;2023-04-19T01:39:22;103614.53;;;-0.11;100.00
50380;BME280;37474;59.468;18.040;2023-04-19T01:41:54;103614.69;;;0.16;100.00
50380;BME280;37474;59.468;18.040;2023-04-19T01:44:22;103611.78;;;0.28;100.00
50380;BME280;37474;59.468;18.040;2023-04-19T01:46:50;103606.38;;;-0.02;100.00
50380;BME280;37474;59.468;18.040;2023-04-19T01:49:18;103607.44;;;-0.18;100.00
50380;BME280;37474;59.468;18.040;2023-04-19T01:51:46;103613.72;;;-0.10;100.00
50380;BME280;37474;59.468;18.040;2023-04-19T01:54:15;103618.88;;;-0.08;100.00
50380;BME280;37474;59.468;18.040;2023-04-19T01:56:43;103621.69;;;-0.23;100.00
50380;BME280;37474;59.468;18.040;2023-04-19T01:59:12;103623.91;;;-0.53;100.00
50380;BME280;37474;59.468;18.040;2023-04-19T02:01:40;103622.69;;;-0.40;100.00
50380;BME280;37474;59.468;18.040;2023-04-19T02:04:09;103621.47;;;-0.71;100.00
50380;BME280;37474;59.468;18.040;2023-04-19T02:06:37;103623.28;;;-0.47;100.00
50380;BME280;37474;59.468;18.040;2023-04-19T02:09:05;103623.56;;;-0.19;100.00
50380;BME280;37474;59.468;18.040;2023-04-19T02:11:33;103623.94;;;-0.72;100.00
50380;BME280;37474;59.468;18.040;2023-04-19T02:14:01;103622.16;;;-0.54;100.00
50380;BME280;37474;59.468;18.040;2023-04-19T02:16:31;103625.06;;;-0.87;100.00
50380;BME280;37474;59.468;18.040;2023-04-19T02:19:01;103624.13;;;-0.47;100.00
50380;BME280;37474;59.468;18.040;2023-04-19T02:21:30;103620.16;;;-0.61;100.00
50380;BME280;37474;59.468;18.040;2023-04-19T02:23:58;103619.22;;;-0.63;100.00
50380;BME280;37474;59.468;18.040;2023-04-19T02:26:26;103616.19;;;-0.55;100.00
50380;BME280;37474;59.468;18.040;2023-04-19T02:28:54;103615.16;;;-1.19;100.00
50380;BME280;37474;59.468;18.040;2023-04-19T02:31:22;103617.19;;;-1.31;100.00
50380;BME280;37474;59.468;18.040;2023-04-19T02:33:52;103617.09;;;-0.94;100.00
50380;BME280;37474;59.468;18.040;2023-04-19T02:36:20;103612.09;;;-1.31;100.00
50380;BME280;37474;59.468;18.040;2023-04-19T02:38:48;103611.41;;;-1.47;100.00
50380;BME280;37474;59.468;18.040;2023-04-19T02:41:17;103614.50;;;-0.75;100.00
50380;BME280;37474;59.468;18.040;2023-04-19T02:43:45;103604.19;;;-1.38;100.00
50380;BME280;37474;59.468;18.040;2023-04-19T02:46:13;103610.75;;;-1.04;100.00
50380;BME280;37474;59.468;18.040;2023-04-19T02:48:45;103598.25;;;-0.98;100.00
50380;BME280;37474;59.468;18.040;2023-04-19T02:51:15;103608.66;;;-1.13;100.00
50380;BME280;37474;59.468;18.040;2023-04-19T02:53:43;103607.53;;;-1.00;100.00
50380;BME280;37474;59.468;18.040;2023-04-19T02:56:12;103605.75;;;-1.01;100.00
50380;BME280;37474;59.468;18.040;2023-04-19T02:58:40;103603.25;;;-1.20;100.00
50380;BME280;37474;59.468;18.040;2023-04-19T03:01:08;103594.34;;;-1.49;100.00
50380;BME280;37474;59.468;18.040;2023-04-19T03:03:36;103606.50;;;-1.03;100.00
50380;BME280;37474;59.468;18.040;2023-04-19T03:06:05;103596.34;;;-1.42;100.00
50380;BME280;37474;59.468;18.040;2023-04-19T03:08:34;103595.16;;;-1.31;100.00
50380;BME280;37474;59.468;18.040;2023-04-19T03:11:03;103601.13;;;-1.68;100.00
50380;BME280;37474;59.468;18.040;2023-04-19T03:13:31;103600.84;;;-1.93;100.00
50380;BME280;37474;59.468;18.040;2023-04-19T03:15:59;103603.19;;;-1.78;100.00
50380;BME280;37474;59.468;18.040;2023-04-19T03:18:27;103601.19;;;-1.86;100.00
50380;BME280;37474;59.468;18.040;2023-04-19T03:20:55;103601.66;;;-1.94;100.00
50380;BME280;37474;59.468;18.040;2023-04-19T03:23:24;103597.94;;;-2.01;100.00
50380;BME280;37474;59.468;18.040;2023-04-19T03:25:54;103600.44;;;-2.20;100.00
50380;BME280;37474;59.468;18.040;2023-04-19T03:28:22;103603.81;;;-2.02;100.00
50380;BME280;37474;59.468;18.040;2023-04-19T03:30:53;103608.53;;;-1.92;100.00
50380;BME280;37474;59.468;18.040;2023-04-19T03:33:20;103610.84;;;-1.96;100.00
50380;BME280;37474;59.468;18.040;2023-04-19T03:35:49;103608.97;;;-1.82;100.00
50380;BME280;37474;59.468;18.040;2023-04-19T03:38:17;103612.06;;;-1.70;100.00
50380;BME280;37474;59.468;18.040;2023-04-19T03:40:46;103615.53;;;-1.68;100.00
50380;BME280;37474;59.468;18.040;2023-04-19T03:43:16;103613.69;;;-1.14;100.00
50380;BME280;37474;59.468;18.040;2023-04-19T03:45:44;103545.63;;;-1.96;100.00
50380;BME280;37474;59.468;18.040;2023-04-19T03:48:12;103608.94;;;-1.65;100.00
50380;BME280;37474;59.468;18.040;2023-04-19T03:50:40;103616.19;;;-1.16;100.00
50380;BME280;37474;59.468;18.040;2023-04-19T03:53:08;103618.19;;;-1.09;100.00
50380;BME280;37474;59.468;18.040;2023-04-19T03:55:36;103615.13;;;-0.81;100.00
50380;BME280;37474;59.468;18.040;2023-04-19T03:58:04;103617.50;;;-0.43;100.00
50380;BME280;37474;59.468;18.040;2023-04-19T04:00:35;103622.25;;;-0.51;100.00
50380;BME280;37474;59.468;18.040;2023-04-19T04:03:03;103626.44;;;-0.53;100.00
50380;BME280;37474;59.468;18.040;2023-04-19T04:05:31;103626.38;;;-0.75;100.00
50380;BME280;37474;59.468;18.040;2023-04-19T04:08:00;103626.75;;;-0.45;100.00
50380;BME280;37474;59.468;18.040;2023-04-19T04:10:28;103615.94;;;0.04;100.00
50380;BME280;37474;59.468;18.040;2023-04-19T04:12:56;103617.44;;;-0.02;100.00
50380;BME280;37474;59.468;18.040;2023-04-19T04:15:24;103618.66;;;0.08;100.00
50380;BME280;37474;59.468;18.040;2023-04-19T04:17:53;103613.91;;;-0.05;100.00
50380;BME280;37474;59.468;18.040;2023-04-19T04:20:21;103614.25;;;0.04;100.00
50380;BME280;37474;59.468;18.040;2023-04-19T04:22:50;103608.50;;;0.32;100.00
50380;BME280;37474;59.468;18.040;2023-04-19T04:25:18;103615.81;;;0.45;100.00
50380;BME280;37474;59.468;18.040;2023-04-19T04:27:51;103603.91;;;0.46;100.00
50380;BME280;37474;59.468;18.040;2023-04-19T04:30:20;103604.94;;;0.51;100.00
50380;BME280;37474;59.468;18.040;2023-04-19T04:32:48;103618.09;;;0.62;100.00
50380;BME280;37474;59.468;18.040;2023-04-19T04:35:18;103615.63;;;0.65;100.00
50380;BME280;37474;59.468;18.040;2023-04-19T04:37:46;103619.28;;;0.71;100.00
50380;BME280;37474;59.468;18.040;2023-04-19T04:40:15;103615.31;;;0.79;100.00
50380;BME280;37474;59.468;18.040;2023-04-19T04:42:43;103612.75;;;1.03;100.00
50380;BME280;37474;59.468;18.040;2023-04-19T04:45:11;103615.47;;;1.08;100.00
50380;BME280;37474;59.468;18.040;2023-04-19T04:47:39;103617.41;;;1.15;100.00
50380;BME280;37474;59.468;18.040;2023-04-19T04:50:08;103624.88;;;1.35;100.00
50380;BME280;37474;59.468;18.040;2023-04-19T04:52:37;103619.69;;;1.33;100.00
50380;BME280;37474;59.468;18.040;2023-04-19T04:55:06;103620.47;;;1.56;100.00
50380;BME280;37474;59.468;18.040;2023-04-19T04:57:34;103616.97;;;1.54;100.00
50380;BME280;37474;59.468;18.040;2023-04-19T05:00:03;103620.94;;;1.71;97.97
50380;BME280;37474;59.468;18.040;2023-04-19T05:02:32;103625.50;;;2.08;98.05
50380;BME280;37474;59.468;18.040;2023-04-19T05:05:00;103618.44;;;2.60;94.70
50380;BME280;37474;59.468;18.040;2023-04-19T05:07:28;103610.16;;;2.69;92.79
50380;BME280;37474;59.468;18.040;2023-04-19T05:09:58;103615.88;;;2.90;88.69
50380;BME280;37474;59.468;18.040;2023-04-19T05:12:26;103625.31;;;2.92;91.34
50380;BME280;37474;59.468;18.040;2023-04-19T05:14:54;103622.34;;;3.09;90.06
50380;BME280;37474;59.468;18.040;2023-04-19T05:17:22;103628.19;;;3.05;88.25
50380;BME280;37474;59.468;18.040;2023-04-19T05:19:50;103622.91;;;2.99;90.16
50380;BME280;37474;59.468;18.040;2023-04-19T05:22:18;103626.19;;;3.26;87.39
50380;BME280;37474;59.468;18.040;2023-04-19T05:24:46;103627.69;;;3.16;87.07
50380;BME280;37474;59.468;18.040;2023-04-19T05:27:17;103625.34;;;3.27;87.55
50380;BME280;37474;59.468;18.040;2023-04-19T05:29:45;103625.69;;;3.39;89.35
50380;BME280;37474;59.468;18.040;2023-04-19T05:32:13;103550.25;;;2.97;87.72
50380;BME280;37474;59.468;18.040;2023-04-19T05:34:41;103629.47;;;3.21;88.49
50380;BME280;37474;59.468;18.040;2023-04-19T05:37:08;103632.50;;;3.39;87.91
50380;BME280;37474;59.468;18.040;2023-04-19T05:39:37;103632.53;;;3.40;88.36
50380;BME280;37474;59.468;18.040;2023-04-19T05:42:07;103631.09;;;3.52;86.57
50380;BME280;37474;59.468;18.040;2023-04-19T05:44:37;103627.94;;;3.62;85.91
50380;BME280;37474;59.468;18.040;2023-04-19T05:47:05;103629.56;;;3.60;84.99
50380;BME280;37474;59.468;18.040;2023-04-19T05:49:33;103635.91;;;3.74;86.34
50380;BME280;37474;59.468;18.040;2023-04-19T05:52:01;103598.41;;;3.79;83.82
50380;BME280;37474;59.468;18.040;2023-04-19T05:54:29;103634.59;;;3.91;84.51
50380;BME280;37474;59.468;18.040;2023-04-19T05:57:01;103630.47;;;3.98;84.29
50380;BME280;37474;59.468;18.040;2023-04-19T05:59:29;103635.19;;;4.17;83.71
50380;BME280;37474;59.468;18.040;2023-04-19T06:01:59;103626.84;;;4.28;82.00
50380;BME280;37474;59.468;18.040;2023-04-19T06:04:27;103617.44;;;4.28;82.24
50380;BME280;37474;59.468;18.040;2023-04-19T06:06:55;103624.22;;;4.26;82.64
50380;BME280;37474;59.468;18.040;2023-04-19T06:09:23;103629.81;;;4.47;81.21
50380;BME280;37474;59.468;18.040;2023-04-19T06:11:52;103628.84;;;4.42;80.47
50380;BME280;37474;59.468;18.040;2023-04-19T06:14:20;103629.50;;;4.32;80.07
50380;BME280;37474;59.468;18.040;2023-04-19T06:16:48;103566.72;;;4.18;79.19
50380;BME280;37474;59.468;18.040;2023-04-19T06:19:17;103630.44;;;4.78;79.02
50380;BME280;37474;59.468;18.040;2023-04-19T06:21:46;103601.88;;;4.64;77.69
50380;BME280;37474;59.468;18.040;2023-04-19T06:24:15;103635.72;;;4.87;78.87
50380;BME280;37474;59.468;18.040;2023-04-19T06:26:43;103612.47;;;4.80;79.64
50380;BME280;37474;59.468;18.040;2023-04-19T06:29:13;103623.94;;;4.98;78.90
50380;BME280;37474;59.468;18.040;2023-04-19T06:31:43;103626.22;;;5.32;76.55
50380;BME280;37474;59.468;18.040;2023-04-19T06:34:11;103627.53;;;5.07;76.45
50380;BME280;37474;59.468;18.040;2023-04-19T06:36:41;103632.97;;;5.25;78.62
50380;BME280;37474;59.468;18.040;2023-04-19T06:39:09;103636.31;;;5.21;75.87
50380;BME280;37474;59.468;18.040;2023-04-19T06:41:37;103625.72;;;5.54;74.84
50380;BME280;37474;59.468;18.040;2023-04-19T06:44:05;103620.13;;;5.81;74.14
50380;BME280;37474;59.468;18.040;2023-04-19T06:46:33;103617.22;;;5.56;74.73
50380;BME280;37474;59.468;18.040;2023-04-19T06:49:01;103618.56;;;5.89;72.37
50380;BME280;37474;59.468;18.040;2023-04-19T06:51:30;103623.13;;;6.05;71.35
50380;BME280;37474;59.468;18.040;2023-04-19T06:53:59;103624.06;;;6.14;72.41
50380;BME280;37474;59.468;18.040;2023-04-19T06:56:39;103621.63;;;6.23;71.09
50380;BME280;37474;59.468;18.040;2023-04-19T06:59:08;103615.16;;;6.57;68.90
50380;BME280;37474;59.468;18.040;2023-04-19T07:01:38;103621.19;;;6.57;68.90
50380;BME280;37474;59.468;18.040;2023-04-19T07:04:07;103615.75;;;6.36;69.10
50380;BME280;37474;59.468;18.040;2023-04-19T07:06:36;103607.25;;;6.43;70.78
50380;BME280;37474;59.468;18.040;2023-04-19T07:09:06;103611.13;;;6.80;66.74
50380;BME280;37474;59.468;18.040;2023-04-19T07:11:34;103613.66;;;6.77;67.60
50380;BME280;37474;59.468;18.040;2023-04-19T07:14:03;103619.47;;;6.59;66.67
50380;BME280;37474;59.468;18.040;2023-04-19T07:16:31;103616.22;;;6.77;67.58
50380;BME280;37474;59.468;18.040;2023-04-19T07:18:59;103618.97;;;6.91;68.15
50380;BME280;37474;59.468;18.040;2023-04-19T07:21:27;103614.88;;;7.14;66.58
50380;BME280;37474;59.468;18.040;2023-04-19T07:23:58;103617.69;;;7.44;65.75
50380;BME280;37474;59.468;18.040;2023-04-19T07:26:28;103619.31;;;7.32;63.22
50380;BME280;37474;59.468;18.040;2023-04-19T07:28:56;103618.47;;;7.30;64.20
50380;BME280;37474;59.468;18.040;2023-04-19T07:31:24;103602.22;;;7.44;64.73
50380;BME280;37474;59.468;18.040;2023-04-19T07:33:53;103600.69;;;7.72;62.67
50380;BME280;37474;59.468;18.040;2023-04-19T07:36:21;103601.72;;;8.01;61.92
50380;BME280;37474;59.468;18.040;2023-04-19T07:38:49;103605.16;;;7.97;62.01
50380;BME280;37474;59.468;18.040;2023-04-19T07:41:17;103597.47;;;8.14;62.52
50380;BME280;37474;59.468;18.040;2023-04-19T07:43:47;103600.97;;;8.25;60.93
50380;BME280;37474;59.468;18.040;2023-04-19T07:46:14;103578.50;;;8.10;58.38
50380;BME280;37474;59.468;18.040;2023-04-19T07:48:43;103598.50;;;8.45;59.18
50380;BME280;37474;59.468;18.040;2023-04-19T07:51:12;103608.91;;;8.62;57.41
50380;BME280;37474;59.468;18.040;2023-04-19T07:53:41;103596.81;;;8.59;57.23
50380;BME280;37474;59.468;18.040;2023-04-19T07:56:10;103575.31;;;8.85;56.62
50380;BME280;37474;59.468;18.040;2023-04-19T07:58:39;103558.03;;;8.65;55.09
50380;BME280;37474;59.468;18.040;2023-04-19T08:01:08;103595.16;;;9.01;55.52
50380;BME280;37474;59.468;18.040;2023-04-19T08:03:37;103598.63;;;9.20;55.62
50380;BME280;37474;59.468;18.040;2023-04-19T08:06:06;103586.53;;;9.37;55.75
50380;BME280;37474;59.468;18.040;2023-04-19T08:08:34;103600.34;;;9.10;53.74
50380;BME280;37474;59.468;18.040;2023-04-19T08:11:03;103585.69;;;9.40;51.94
50380;BME280;37474;59.468;18.040;2023-04-19T08:13:31;103577.00;;;9.58;52.62
50380;BME280;37474;59.468;18.040;2023-04-19T08:15:59;103581.31;;;9.74;52.17
50380;BME280;37474;59.468;18.040;2023-04-19T08:18:32;103576.03;;;10.03;50.79
50380;BME280;37474;59.468;18.040;2023-04-19T08:21:01;103575.91;;;10.35;50.46
50380;BME280;37474;59.468;18.040;2023-04-19T08:23:29;103577.66;;;10.31;48.61
50380;BME280;37474;59.468;18.040;2023-04-19T08:26:13;103578.41;;;10.55;47.40
50380;BME280;37474;59.468;18.040;2023-04-19T08:28:41;103523.78;;;10.75;44.44
50380;BME280;37474;59.468;18.040;2023-04-19T08:31:09;103578.97;;;10.98;45.06
50380;BME280;37474;59.468;18.040;2023-04-19T08:33:38;103579.69;;;11.17;43.62
50380;BME280;37474;59.468;18.040;2023-04-19T08:36:07;103581.78;;;10.68;42.28
50380;BME280;37474;59.468;18.040;2023-04-19T08:38:36;103584.84;;;11.23;42.70
50380;BME280;37474;59.468;18.040;2023-04-19T08:41:04;103583.28;;;11.01;43.73
50380;BME280;37474;59.468;18.040;2023-04-19T08:43:34;103578.81;;;11.18;42.69
50380;BME280;37474;59.468;18.040;2023-04-19T08:46:06;103578.88;;;11.10;43.17
50380;BME280;37474;59.468;18.040;2023-04-19T08:48:35;103575.06;;;11.48;42.60
50380;BME280;37474;59.468;18.040;2023-04-19T08:51:05;103575.91;;;11.49;42.47
50380;BME280;37474;59.468;18.040;2023-04-19T08:53:34;103575.03;;;11.53;41.36
50380;BME280;37474;59.468;18.040;2023-04-19T08:56:06;103567.22;;;11.56;42.42
50380;BME280;37474;59.468;18.040;2023-04-19T08:58:49;103560.09;;;11.70;41.77
50380;BME280;37474;59.468;18.040;2023-04-19T09:01:38;103564.72;;;12.22;41.61
50380;BME280;37474;59.468;18.040;2023-04-19T09:04:10;103562.53;;;11.87;40.53
50380;BME280;37474;59.468;18.040;2023-04-19T09:06:42;103547.66;;;12.01;40.35
50380;BME280;37474;59.468;18.040;2023-04-19T09:09:14;103552.09;;;11.92;39.58
50380;BME280;37474;59.468;18.040;2023-04-19T09:11:46;103551.38;;;11.79;40.18
50380;BME280;37474;59.468;18.040;2023-04-19T09:14:15;103562.00;;;11.57;41.93
50380;BME280;37474;59.468;18.040;2023-04-19T09:16:44;103563.41;;;11.87;40.75
50380;BME280;37474;59.468;18.040;2023-04-19T09:19:13;103555.03;;;11.61;40.39
50380;BME280;37474;59.468;18.040;2023-04-19T09:21:53;103547.88;;;11.83;39.81
50380;BME280;37474;59.468;18.040;2023-04-19T09:24:36;103558.34;;;12.45;37.95
50380;BME280;37474;59.468;18.040;2023-04-19T09:27:08;103542.03;;;12.33;39.45
50380;BME280;37474;59.468;18.040;2023-04-19T09:29:38;103558.44;;;12.95;37.89
50380;BME280;37474;59.468;18.040;2023-04-19T09:32:06;103555.66;;;12.51;37.82
50380;BME280;37474;59.468;18.040;2023-04-19T09:34:34;103546.44;;;12.28;39.49
50380;BME280;37474;59.468;18.040;2023-04-19T09:37:12;103553.28;;;12.35;37.34
50380;BME280;37474;59.468;18.040;2023-04-19T09:40:20;103547.69;;;12.61;37.90
50380;BME280;37474;59.468;18.040;2023-04-19T09:42:48;103546.38;;;12.90;36.31
50380;BME280;37474;59.468;18.040;2023-04-19T09:45:19;103536.69;;;13.00;35.43
50380;BME280;37474;59.468;18.040;2023-04-19T09:48:00;103537.53;;;13.00;35.26
50380;BME280;37474;59.468;18.040;2023-04-19T09:50:29;103539.38;;;12.92;35.72
50380;BME280;37474;59.468;18.040;2023-04-19T09:53:05;103543.06;;;12.80;35.96
50380;BME280;37474;59.468;18.040;2023-04-19T09:55:35;103539.72;;;12.72;35.30
50380;BME280;37474;59.468;18.040;2023-04-19T09:58:24;103540.69;;;12.65;35.56
50380;BME280;37474;59.468;18.040;2023-04-19T10:01:08;103529.63;;;12.51;35.65
50380;BME280;37474;59.468;18.040;2023-04-19T10:03:43;103523.06;;;12.25;36.26
50380;BME280;37474;59.468;18.040;2023-04-19T10:06:14;103523.06;;;12.25;36.63
50380;BME280;37474;59.468;18.040;2023-04-19T10:09:04;103528.75;;;12.52;36.47
50380;BME280;37474;59.468;18.040;2023-04-19T10:11:33;103521.09;;;12.97;37.35
50380;BME280;37474;59.468;18.040;2023-04-19T10:14:06;103523.00;;;12.85;35.45
50380;BME280;37474;59.468;18.040;2023-04-19T10:16:35;103518.38;;;13.03;35.75
50380;BME280;37474;59.468;18.040;2023-04-19T10:19:07;103511.00;;;12.78;35.61
50380;BME280;37474;59.468;18.040;2023-04-19T10:21:36;103517.16;;;12.71;35.71
50380;BME280;37474;59.468;18.040;2023-04-19T10:24:07;103501.91;;;13.02;39.06
50380;BME280;37474;59.468;18.040;2023-04-19T10:27:07;103502.34;;;13.27;36.85
50380;BME280;37474;59.468;18.040;2023-04-19T10:29:56;103514.97;;;12.43;36.13
50380;BME280;37474;59.468;18.040;2023-04-19T10:32:26;103506.38;;;11.71;37.04
50380;BME280;37474;59.468;18.040;2023-04-19T10:35:00;103519.16;;;12.54;36.44
50380;BME280;37474;59.468;18.040;2023-04-19T10:37:30;103502.56;;;13.13;36.24
50380;BME280;37474;59.468;18.040;2023-04-19T10:39:59;103502.28;;;13.30;35.95
50380;BME280;37474;59.468;18.040;2023-04-19T10:45:31;103494.31;;;13.39;35.50
50380;BME280;37474;59.468;18.040;2023-04-19T10:48:01;103489.91;;;12.92;37.14
50380;BME280;37474;59.468;18.040;2023-04-19T10:50:58;103492.91;;;13.22;36.91
50380;BME280;37474;59.468;18.040;2023-04-19T10:53:46;103495.53;;;12.67;35.54
50380;BME280;37474;59.468;18.040;2023-04-19T10:56:17;103496.50;;;13.13;36.86
50380;BME280;37474;59.468;18.040;2023-04-19T10:59:10;103481.31;;;13.36;36.65
50380;BME280;37474;59.468;18.040;2023-04-19T11:01:40;103479.16;;;13.98;36.32
50380;BME280;37474;59.468;18.040;2023-04-19T11:04:10;103475.41;;;13.71;34.63
50380;BME280;37474;59.468;18.040;2023-04-19T11:06:57;103477.38;;;13.60;35.35
50380;BME280;37474;59.468;18.040;2023-04-19T11:09:31;103476.91;;;13.40;35.36
50380;BME280;37474;59.468;18.040;2023-04-19T11:12:03;103474.63;;;13.23;35.71
50380;BME280;37474;59.468;18.040;2023-04-19T11:14:35;103469.22;;;13.32;36.02
50380;BME280;37474;59.468;18.040;2023-04-19T11:17:14;103467.69;;;13.65;34.48
50380;BME280;37474;59.468;18.040;2023-04-19T11:19:44;103467.47;;;13.78;34.74
50380;BME280;37474;59.468;18.040;2023-04-19T11:22:12;103480.91;;;13.99;36.01
50380;BME280;37474;59.468;18.040;2023-04-19T11:24:44;103471.66;;;13.85;33.70
50380;BME280;37474;59.468;18.040;2023-04-19T11:27:15;103475.28;;;13.76;33.57
50380;BME280;37474;59.468;18.040;2023-04-19T11:29:43;103471.41;;;13.95;32.60
50380;BME280;37474;59.468;18.040;2023-04-19T11:32:11;103466.81;;;14.07;32.01
50380;BME280;37474;59.468;18.040;2023-04-19T11:34:40;103464.34;;;14.38;32.66
50380;BME280;37474;59.468;18.040;2023-04-19T11:37:09;103473.59;;;14.52;33.02
50380;BME280;37474;59.468;18.040;2023-04-19T11:39:44;103470.91;;;14.18;32.40
50380;BME280;37474;59.468;18.040;2023-04-19T11:42:18;103475.78;;;13.93;33.31
50380;BME280;37474;59.468;18.040;2023-04-19T11:44:50;103461.50;;;14.50;31.85
50380;BME280;37474;59.468;18.040;2023-04-19T11:47:19;103455.75;;;14.71;31.09
50380;BME280;37474;59.468;18.040;2023-04-19T11:49:47;103466.81;;;14.44;30.99
50380;BME280;37474;59.468;18.040;2023-04-19T11:52:20;103410.28;;;14.07;32.17
50380;BME280;37474;59.468;18.040;2023-04-19T11:54:49;103459.16;;;14.73;31.91
50380;BME280;37474;59.468;18.040;2023-04-19T11:57:28;103452.97;;;14.76;32.08
50380;BME280;37474;59.468;18.040;2023-04-19T12:00:05;103454.13;;;14.66;32.20
50380;BME280;37474;59.468;18.040;2023-04-19T12:02:38;103446.31;;;14.66;32.56
50380;BME280;37474;59.468;18.040;2023-04-19T12:05:08;103447.09;;;15.02;30.73
50380;BME280;37474;59.468;18.040;2023-04-19T12:07:37;103442.53;;;14.76;31.21
50380;BME280;37474;59.468;18.040;2023-04-19T12:10:23;103444.13;;;14.83;31.09
50380;BME280;37474;59.468;18.040;2023-04-19T12:12:53;103455.38;;;14.12;31.04
50380;BME280;37474;59.468;18.040;2023-04-19T12:15:39;103456.31;;;14.10;31.13
50380;BME280;37474;59.468;18.040;2023-04-19T12:18:08;103450.66;;;13.91;32.15
50380;BME280;37474;59.468;18.040;2023-04-19T12:20:37;103436.66;;;13.93;30.69
50380;BME280;37474;59.468;18.040;2023-04-19T12:23:05;103440.38;;;14.22;32.49
50380;BME280;37474;59.468;18.040;2023-04-19T12:25:37;103447.47;;;13.78;31.08
50380;BME280;37474;59.468;18.040;2023-04-19T12:28:07;103414.28;;;14.22;31.22
50380;BME280;37474;59.468;18.040;2023-04-19T12:30:35;103442.28;;;14.14;32.22
50380;BME280;37474;59.468;18.040;2023-04-19T12:33:06;103440.72;;;14.07;31.28
50380;BME280;37474;59.468;18.040;2023-04-19T12:35:34;103437.94;;;13.76;30.88
50380;BME280;37474;59.468;18.040;2023-04-19T12:38:04;103439.22;;;13.96;31.94
50380;BME280;37474;59.468;18.040;2023-04-19T12:40:32;103438.28;;;14.00;32.50
50380;BME280;37474;59.468;18.040;2023-04-19T12:43:00;103431.50;;;14.29;30.94
50380;BME280;37474;59.468;18.040;2023-04-19T12:45:30;103431.94;;;14.11;30.90
50380;BME280;37474;59.468;18.040;2023-04-19T12:48:00;103426.97;;;14.73;32.35
50380;BME280;37474;59.468;18.040;2023-04-19T12:50:28;103421.09;;;15.28;31.35
50380;BME280;37474;59.468;18.040;2023-04-19T12:52:56;103423.94;;;14.54;30.95
50380;BME280;37474;59.468;18.040;2023-04-19T12:55:25;103420.66;;;14.10;30.54
50380;BME280;37474;59.468;18.040;2023-04-19T12:57:53;103416.31;;;13.70;31.64